Willmathsville, Missouri
Current Conditions -  °F | °C
As of 2:55 PM on Thursday 20 Nov 2014 (Local Time) from KIRK Reporting Station
Clear Clear  
Wind Chill: 28°   Ceiling: Unl
Heat Index: 35°   Visibility: 10mi
Dew Point: 15°   Wind: 9mph
Humidity: 44%   Direction: 310°NW
Pressure: 30.19"   Gusts: NA
Location:  40.3435°N, 92.5364°W
Report Text: KIRK 202055Z AUTO 31008KT 10SM CLR 02/M09 A3019 RMK AO2 SLP237 T00171094 55007
Loading
Personal Weather Stations






























Interactive Weather Map New forecast layout! Learn more

10-Day Weather Forecast

Advertisements
Track Severe Weather on mobile